Time;durP1;ratioP1;P1;durP2;ratioP2;P2;SDS_P1;SDS_P2;PMS_P1;PMS_P2;Temp;Humidity;BMP_temperature;BMP_pressure;BME280_temperature;BME280_humidity;BME280_pressure;Samples;Min_cycle;Max_cycle;Signal;HPM_P1;HPM_P2
2023/02/06 00:02:39;;;;;;;131.20;59.10;;;;;;;-5.29;81.21;102527.92;130835;1295;24299;-83
2023/02/06 00:05:39;;;;;;;;;;;;;;;-5.35;81.24;102520.70;131094;1292;24284;-83
2023/02/06 00:08:40;;;;;;;118.80;54.00;;;;;;;-5.37;81.39;102522.79;130883;1292;22550;-83
2023/02/06 00:11:41;;;;;;;118.10;51.40;;;;;;;-5.38;81.23;102517.25;130630;1293;24358;-82
2023/02/06 00:14:41;;;;;;;116.80;53.00;;;;;;;-5.39;81.16;102523.30;130754;1295;22558;-82
2023/02/06 00:17:42;;;;;;;119.30;51.10;;;;;;;-5.42;81.00;102522.96;130732;1295;22573;-83
2023/02/06 00:20:43;;;;;;;122.00;54.00;;;;;;;-5.44;81.09;102512.61;131064;1292;22616;-84
2023/02/06 00:23:45;;;;;;;124.20;55.30;;;;;;;-5.44;81.03;102506.76;130939;1295;25307;-83
2023/02/06 00:26:45;;;;;;;122.40;52.10;;;;;;;-5.43;81.06;102509.17;131123;1292;24292;-83
2023/02/06 00:29:46;;;;;;;123.00;56.80;;;;;;;-5.43;80.88;102503.48;131146;1295;22879;-83
2023/02/06 00:32:47;;;;;;;126.40;55.40;;;;;;;-5.43;81.01;102502.27;131238;1292;22559;-83
2023/02/06 00:35:49;;;;;;;121.80;55.30;;;;;;;-5.42;81.25;102506.23;131005;1288;22606;-83
2023/02/06 00:38:49;;;;;;;118.00;53.30;;;;;;;-5.39;81.34;102501.21;131012;1292;23376;-83
2023/02/06 00:41:50;;;;;;;125.20;56.00;;;;;;;-5.37;81.37;102504.83;130857;1292;22602;-83
2023/02/06 00:44:51;;;;;;;128.50;55.90;;;;;;;-5.36;81.50;102503.45;130550;1292;22562;-83
2023/02/06 00:47:52;;;;;;;122.00;52.90;;;;;;;-5.34;81.44;102507.75;130671;1292;25374;-82
2023/02/06 00:50:53;;;;;;;124.50;52.50;;;;;;;-5.34;81.45;102509.99;130514;1296;22765;-83
2023/02/06 00:53:53;;;;;;;121.50;53.20;;;;;;;-5.31;81.46;102519.48;131048;1292;22562;-84
2023/02/06 00:56:54;;;;;;;117.40;50.40;;;;;;;-5.32;81.48;102522.76;130816;1295;22582;-83
2023/02/06 00:59:55;;;;;;;120.30;51.10;;;;;;;-5.34;81.44;102526.55;130893;1295;24212;-83
2023/02/06 01:02:55;;;;;;;123.00;53.40;;;;;;;-5.35;81.36;102532.26;130733;1301;23953;-83
2023/02/06 01:05:56;;;;;;;119.50;52.50;;;;;;;-5.37;81.29;102531.73;130664;1292;25723;-82
2023/02/06 01:08:56;;;;;;;118.60;53.40;;;;;;;-5.37;81.51;102519.50;130648;1293;22568;-83
2023/02/06 01:11:57;;;;;;;119.10;54.10;;;;;;;-5.36;81.39;102513.98;130403;1292;24494;-84
2023/02/06 01:15:00;;;;;;;102.00;45.90;;;;;;;-5.36;81.56;102518.29;130651;1292;22669;-83
2023/02/06 01:18:01;;;;;;;111.50;47.10;;;;;;;-5.34;81.54;102524.31;130819;1293;22559;-83
2023/02/06 01:21:08;;;;;;;116.20;52.10;;;;;;;-5.31;81.58;102521.02;130647;1294;22655;-83
2023/02/06 01:24:08;;;;;;;104.70;44.90;;;;;;;-5.30;81.52;102510.84;130855;1292;23713;-82
2023/02/06 01:27:09;;;;;;;104.60;48.10;;;;;;;-5.31;81.56;102502.05;130940;1295;25404;-84
2023/02/06 01:30:13;;;;;;;103.90;47.30;;;;;;;-5.31;81.59;102495.48;130823;1296;25631;-83
2023/02/06 01:33:14;;;;;;;103.10;44.80;;;;;;;-5.31;81.79;102491.52;130722;1297;25511;-83
2023/02/06 01:36:16;;;;;;;89.40;42.80;;;;;;;-5.31;81.83;102482.89;130983;1292;24304;-84
2023/02/06 01:39:16;;;;;;;93.80;43.40;;;;;;;-5.31;81.68;102476.87;130832;1294;22575;-84
2023/02/06 01:42:17;;;;;;;101.40;44.30;;;;;;;-5.33;81.67;102473.93;130648;1295;22606;-83
2023/02/06 01:45:25;;;;;;;99.20;42.10;;;;;;;-5.40;81.64;102468.11;130793;1295;22642;-83
2023/02/06 01:48:37;;;;;;;85.80;37.60;;;;;;;-5.45;81.71;102454.33;130896;1294;22566;-83
2023/02/06 01:51:39;;;;;;;74.40;35.10;;;;;;;-5.47;81.76;102447.77;130823;1295;22563;-83
2023/02/06 01:54:41;;;;;;;74.00;33.80;;;;;;;-5.50;81.60;102453.48;130378;1286;25522;-84
2023/02/06 01:57:42;;;;;;;79.80;35.70;;;;;;;-5.57;81.51;102464.20;131045;1294;22656;-83
2023/02/06 02:00:43;;;;;;;78.70;35.60;;;;;;;-5.60;81.78;102474.73;131109;1293;24237;-83
2023/02/06 02:03:48;;;;;;;77.50;35.70;;;;;;;-5.61;81.65;102469.91;130648;1292;25401;-84
2023/02/06 02:07:07;;;;;;;72.60;32.50;;;;;;;-5.60;81.48;102466.63;130595;1293;22642;-83
2023/02/06 02:10:08;;;;;;;76.30;35.50;;;;;;;-5.62;81.42;102470.44;130798;1295;24242;-82
2023/02/06 02:13:08;;;;;;;70.60;34.20;;;;;;;-5.65;81.63;102474.77;130890;1292;24276;-82
2023/02/06 02:16:28;;;;;;;69.20;33.60;;;;;;;-5.66;81.44;102477.52;130483;1297;22573;-83
2023/02/06 02:19:31;;;;;;;72.30;32.50;;;;;;;-5.66;81.63;102473.04;130641;1290;22565;-83
2023/02/06 02:22:52;;;;;;;78.70;35.50;;;;;;;-5.65;81.74;102469.75;130861;1285;24016;-83
2023/02/06 02:26:15;;;;;;;81.10;36.20;;;;;;;-5.60;82.08;102471.12;130813;1293;22615;-83
2023/02/06 02:29:54;;;;;;;73.70;32.30;;;;;;;-5.56;81.87;102467.98;130839;1293;22553;-83
2023/02/06 02:33:11;;;;;;;69.40;31.10;;;;;;;-5.53;81.77;102466.45;130942;1298;24258;-83
2023/02/06 02:36:26;;;;;;;68.30;31.80;;;;;;;-5.51;81.95;102476.60;130629;1298;22553;-83
2023/02/06 02:39:49;;;;;;;70.20;32.00;;;;;;;-5.54;81.81;102471.61;130865;1293;22654;-83
2023/02/06 02:43:12;;;;;;;68.40;32.60;;;;;;;-5.59;81.95;102465.59;131003;1295;22946;-83
2023/02/06 02:46:28;;;;;;;65.20;31.70;;;;;;;-5.57;81.99;102458.17;131132;1292;25334;-83
2023/02/06 02:49:33;;;;;;;63.70;30.30;;;;;;;-5.53;82.33;102457.46;131030;1293;22594;-83
2023/02/06 02:52:34;;;;;;;61.20;30.30;;;;;;;-5.51;82.04;102450.04;130560;1292;24479;-83
2023/02/06 02:55:34;;;;;;;63.00;29.40;;;;;;;-5.50;82.12;102447.96;130666;1293;22577;-83
2023/02/06 02:58:39;;;;;;;76.50;32.60;;;;;;;-5.51;82.26;102449.54;130731;1293;22662;-83
2023/02/06 03:01:51;;;;;;;71.90;33.60;;;;;;;-5.54;82.18;102446.08;130776;1295;22617;-82
2023/02/06 03:04:54;;;;;;;68.20;32.30;;;;;;;-5.56;82.19;102438.85;130995;1292;22566;-83
2023/02/06 03:08:21;;;;;;;63.80;32.20;;;;;;;-5.58;82.17;102439.55;130666;1295;24982;-83
2023/02/06 03:11:22;;;;;;;70.90;32.00;;;;;;;-5.56;82.41;102439.89;130853;1295;24713;-83
2023/02/06 03:14:39;;;;;;;69.80;32.80;;;;;;;-5.57;82.48;102433.69;130597;1294;24336;-83
2023/02/06 03:17:46;;;;;;;64.50;28.40;;;;;;;-5.58;82.48;102430.42;130993;1295;22642;-83
2023/02/06 03:20:50;;;;;;;60.90;29.30;;;;;;;-5.58;82.46;102430.58;130721;1293;22563;-82
2023/02/06 03:23:56;;;;;;;71.80;32.60;;;;;;;-5.59;82.57;102427.65;130668;1289;24235;-83
2023/02/06 03:27:00;;;;;;;73.20;32.40;;;;;;;-5.57;82.60;102422.83;131012;1295;23264;-83
2023/02/06 03:30:04;;;;;;;72.00;31.30;;;;;;;-5.56;82.58;102419.19;130520;1295;22681;-82
2023/02/06 03:33:09;;;;;;;69.20;30.20;;;;;;;-5.59;82.49;102418.34;130954;1293;22563;-83
2023/02/06 03:36:15;;;;;;;67.70;31.50;;;;;;;-5.61;82.47;102432.50;131100;1289;22570;-83
2023/02/06 03:39:18;;;;;;;65.10;31.90;;;;;;;-5.69;82.50;102439.60;130867;1288;22615;-82
2023/02/06 03:42:21;;;;;;;68.90;31.70;;;;;;;-5.71;82.63;102436.16;130887;1294;23373;-83
2023/02/06 03:45:27;;;;;;;71.10;31.90;;;;;;;-5.72;82.61;102435.98;130969;1293;25394;-83
2023/02/06 03:48:35;;;;;;;68.90;32.10;;;;;;;-5.70;82.78;102438.41;130692;1288;22791;-83
2023/02/06 03:51:40;;;;;;;68.40;32.80;;;;;;;-5.69;82.77;102438.05;130872;1291;22604;-83
2023/02/06 03:54:48;;;;;;;68.30;32.10;;;;;;;-5.68;82.68;102437.02;130355;1288;22622;-83
2023/02/06 03:57:54;;;;;;;62.80;31.10;;;;;;;-5.66;82.45;102438.55;131069;1292;22585;-83
2023/02/06 04:00:54;;;;;;;92.30;38.60;;;;;;;-5.65;82.54;102441.98;130874;1292;22698;-83
2023/02/06 04:03:56;;;;;;;96.20;40.10;;;;;;;-5.66;82.54;102445.80;130872;1292;22582;-83
2023/02/06 04:06:59;;;;;;;75.80;34.50;;;;;;;-5.66;82.61;102438.90;130686;1286;23898;-82
2023/02/06 04:10:00;;;;;;;72.40;31.40;;;;;;;-5.65;82.86;102437.34;131078;1293;22692;-83
2023/02/06 04:13:01;;;;;;;;;;;;;;;-5.66;82.79;102434.07;130924;1288;23889;-83
2023/02/06 04:16:02;;;;;;;64.00;30.90;;;;;;;-5.67;82.98;102437.52;130994;1294;22564;-83
2023/02/06 04:19:02;;;;;;;67.70;30.10;;;;;;;-5.67;82.96;102432.68;130713;1296;22586;-83
2023/02/06 04:22:04;;;;;;;81.60;38.00;;;;;;;-5.71;83.10;102430.64;130753;1292;22560;-83
2023/02/06 04:25:06;;;;;;;73.70;34.60;;;;;;;-5.72;83.36;102432.71;130892;1286;22573;-82
2023/02/06 04:28:07;;;;;;;82.90;37.00;;;;;;;-5.72;83.42;102433.06;130818;1292;25524;-83
2023/02/06 04:31:07;;;;;;;;;;;;;;;-5.70;83.40;102428.23;130528;1291;22559;-82
2023/02/06 04:34:08;;;;;;;79.30;34.90;;;;;;;-5.70;83.50;102429.42;130999;1292;22579;-82
2023/02/06 04:37:11;;;;;;;92.90;37.30;;;;;;;-5.67;83.60;102431.48;130833;1295;25367;-83
2023/02/06 04:40:11;;;;;;;88.30;39.80;;;;;;;-5.68;83.40;102431.15;131060;1293;22575;-83
2023/02/06 04:43:12;;;;;;;82.50;39.60;;;;;;;-5.65;83.58;102422.16;130742;1295;22567;-83
2023/02/06 04:46:12;;;;;;;92.80;41.50;;;;;;;-5.60;83.59;102424.56;130823;1293;22571;-83
2023/02/06 04:49:14;;;;;;;82.50;39.10;;;;;;;-5.54;83.66;102428.14;130834;1295;22572;-84
2023/02/06 04:52:15;;;;;;;80.30;37.80;;;;;;;-5.52;83.54;102431.93;130713;1292;24247;-83
2023/02/06 04:55:15;;;;;;;80.40;39.00;;;;;;;-5.48;83.52;102432.95;130442;1291;22572;-83
2023/02/06 04:58:16;;;;;;;80.80;37.20;;;;;;;-5.46;83.72;102428.45;130533;1292;23946;-83
2023/02/06 05:01:18;;;;;;;75.70;36.00;;;;;;;-5.43;83.65;102428.09;130687;1295;25499;-83
2023/02/06 05:04:19;;;;;;;74.00;35.10;;;;;;;-5.40;83.63;102420.83;130884;1292;22571;-83
2023/02/06 05:07:19;;;;;;;78.40;36.40;;;;;;;-5.35;83.68;102418.74;130904;1296;22548;-83
2023/02/06 05:10:20;;;;;;;79.60;37.40;;;;;;;-5.31;83.83;102420.78;131083;1293;25404;-84
2023/02/06 05:13:21;;;;;;;80.90;37.60;;;;;;;-5.29;83.62;102415.94;130781;1292;22576;-83
2023/02/06 05:16:21;;;;;;;95.10;41.70;;;;;;;-5.27;83.61;102415.05;130946;1288;22566;-83
2023/02/06 05:19:22;;;;;;;87.70;43.20;;;;;;;-5.27;83.46;102412.46;131070;1285;25441;-84
2023/02/06 05:22:23;;;;;;;85.60;42.30;;;;;;;-5.27;83.61;102419.55;130999;1292;22605;-83
2023/02/06 05:25:23;;;;;;;86.10;39.10;;;;;;;-5.25;83.67;102426.27;130912;1295;22633;-83
2023/02/06 05:28:24;;;;;;;74.50;37.60;;;;;;;-5.23;83.70;102420.55;130538;1289;22731;-83
2023/02/06 05:31:25;;;;;;;79.20;39.30;;;;;;;-5.20;83.49;102426.58;130459;1289;159217;-82
2023/02/06 05:34:25;;;;;;;82.50;40.10;;;;;;;-5.19;83.58;102433.13;130870;1295;23605;-83
2023/02/06 05:37:26;;;;;;;86.40;40.90;;;;;;;-5.25;83.42;102433.50;130633;1296;22560;-82
2023/02/06 05:40:26;;;;;;;90.90;40.00;;;;;;;-5.30;83.39;102439.06;130906;1288;22688;-82
2023/02/06 05:43:27;;;;;;;82.20;41.40;;;;;;;-5.34;83.32;102437.35;130344;1295;22571;-84
2023/02/06 05:46:28;;;;;;;74.50;37.40;;;;;;;-5.41;83.48;102434.27;130762;1286;22640;-84
2023/02/06 05:49:28;;;;;;;85.30;42.80;;;;;;;-5.47;83.48;102445.70;130707;1286;25297;-81
2023/02/06 05:52:29;;;;;;;86.30;42.90;;;;;;;-5.51;83.64;102452.79;130951;1295;22582;-82
2023/02/06 05:55:29;;;;;;;75.20;35.90;;;;;;;-5.52;83.80;102461.77;130916;1288;25373;-82
2023/02/06 05:58:30;;;;;;;74.90;36.30;;;;;;;-5.55;83.63;102458.67;130782;1287;23598;-83
2023/02/06 06:01:34;;;;;;;79.80;38.70;;;;;;;-5.56;83.81;102454.73;130829;1288;24407;-83
2023/02/06 06:04:34;;;;;;;68.70;33.20;;;;;;;-5.55;83.81;102454.19;130721;1296;22621;-83
2023/02/06 06:07:35;;;;;;;82.40;37.90;;;;;;;-5.52;84.10;102453.33;130711;1293;22563;-80
2023/02/06 06:10:35;;;;;;;81.50;38.70;;;;;;;-5.49;84.17;102451.41;130849;1292;22563;-82
2023/02/06 06:13:39;;;;;;;66.20;30.80;;;;;;;-5.47;84.15;102456.23;130915;1289;25520;-85
2023/02/06 06:16:40;;;;;;;62.00;30.50;;;;;;;-5.49;84.08;102453.48;131140;1293;24284;-81
2023/02/06 06:19:41;;;;;;;60.10;29.00;;;;;;;-5.48;84.27;102443.81;131569;1293;22614;-81
2023/02/06 06:22:41;;;;;;;67.40;29.30;;;;;;;-5.48;84.15;102442.79;130855;1286;22667;-83
2023/02/06 06:25:42;;;;;;;74.70;33.40;;;;;;;-5.49;84.20;102436.92;131285;1288;25418;-84
2023/02/06 06:28:43;;;;;;;74.50;32.60;;;;;;;-5.46;84.20;102431.23;130715;1294;22573;-83
2023/02/06 06:31:44;;;;;;;68.30;31.30;;;;;;;-5.44;84.29;102431.54;130925;1292;22566;-82
2023/02/06 06:34:45;;;;;;;59.30;29.80;;;;;;;-5.42;84.08;102429.98;130642;1295;22668;-82
2023/02/06 06:37:45;;;;;;;68.90;29.60;;;;;;;-5.42;84.21;102421.02;130699;1291;23217;-83
2023/02/06 06:40:49;;;;;;;65.10;29.90;;;;;;;-5.41;84.05;102417.56;130359;1293;22679;-84
2023/02/06 06:43:49;;;;;;;65.70;29.80;;;;;;;-5.41;84.05;102418.42;130956;1294;25274;-83
2023/02/06 06:46:50;;;;;;;51.50;26.30;;;;;;;-5.39;84.06;102425.66;130845;1293;23397;-82
2023/02/06 06:49:51;;;;;;;;;;;;;;;-5.37;84.17;102426.86;130662;1286;24441;-83
2023/02/06 06:52:51;;;;;;;65.70;29.50;;;;;;;-5.36;84.20;102427.02;130556;1295;22614;-83
2023/02/06 06:55:52;;;;;;;56.90;30.10;;;;;;;-5.32;84.19;102431.66;130837;1295;22566;-84
2023/02/06 06:58:53;;;;;;;63.50;30.80;;;;;;;-5.26;84.29;102434.21;130843;1286;23266;-84
2023/02/06 07:01:54;;;;;;;62.50;29.50;;;;;;;-5.20;84.39;102440.38;130635;1293;25385;-84
2023/02/06 07:04:54;;;;;;;;;;;;;;;-5.17;84.39;102438.80;130508;1288;22540;-84
2023/02/06 07:07:55;;;;;;;64.80;29.40;;;;;;;-5.11;84.46;102443.43;130724;1295;22582;-84
2023/02/06 07:10:56;;;;;;;64.90;32.40;;;;;;;-5.02;84.56;102446.48;130663;1295;23649;-82
2023/02/06 07:13:57;;;;;;;69.70;30.60;;;;;;;-4.92;84.62;102441.06;130743;1298;22556;-83
2023/02/06 07:16:58;;;;;;;63.00;30.80;;;;;;;-4.80;84.75;102441.65;130545;1295;22598;-82
2023/02/06 07:19:59;;;;;;;61.70;30.60;;;;;;;-4.69;84.71;102442.44;130466;1294;25417;-82
2023/02/06 07:23:00;;;;;;;69.30;33.20;;;;;;;-4.59;84.75;102445.98;130440;1286;24388;-84
2023/02/06 07:26:01;;;;;;;63.80;30.30;;;;;;;-4.50;84.59;102448.48;130657;1296;22558;-83
2023/02/06 07:29:02;;;;;;;66.00;30.90;;;;;;;-4.42;84.24;102449.45;130777;1294;22560;-85
2023/02/06 07:32:04;;;;;;;73.70;32.10;;;;;;;-4.36;84.05;102453.55;130366;1295;22562;-82
2023/02/06 07:35:05;;;;;;;73.20;33.60;;;;;;;-4.30;83.98;102453.31;130327;1295;22572;-84
2023/02/06 07:38:06;;;;;;;74.70;36.40;;;;;;;-4.25;83.77;102457.25;130292;1295;22577;-83
2023/02/06 07:41:07;;;;;;;;;;;;;;;-4.19;83.94;102462.72;130496;1290;25474;-83
2023/02/06 07:44:11;;;;;;;70.80;35.10;;;;;;;-4.12;83.87;102466.10;130350;1295;22662;-83
2023/02/06 07:47:11;;;;;;;65.00;28.80;;;;;;;-4.03;83.95;102469.46;130771;1295;22560;-82
2023/02/06 07:50:12;;;;;;;62.50;28.90;;;;;;;-3.96;83.63;102470.44;130401;1288;24243;-83
2023/02/06 07:53:13;;;;;;;66.30;30.00;;;;;;;-3.90;83.49;102470.02;130810;1292;22568;-85
2023/02/06 07:56:18;;;;;;;65.90;32.10;;;;;;;-3.80;83.37;102472.52;130355;1293;23047;-84
2023/02/06 07:59:19;;;;;;;66.50;29.70;;;;;;;-3.63;83.42;102477.16;130623;1292;26586;-84
2023/02/06 08:02:19;;;;;;;65.70;30.30;;;;;;;-3.47;83.32;102479.73;130847;1292;23697;-83
2023/02/06 08:05:20;;;;;;;62.80;31.80;;;;;;;-3.28;83.30;102479.83;131034;1295;25510;-84
2023/02/06 08:08:21;;;;;;;62.20;28.70;;;;;;;-3.10;83.38;102476.46;130683;1294;22560;-84
2023/02/06 08:11:28;;;;;;;62.90;30.30;;;;;;;-2.94;83.34;102471.56;130865;1286;22571;-83
2023/02/06 08:14:30;;;;;;;58.40;29.10;;;;;;;-2.75;83.29;102475.25;130645;1292;22546;-83
2023/02/06 08:17:30;;;;;;;70.50;30.00;;;;;;;-2.57;82.99;102477.39;130890;1290;22567;-83
2023/02/06 08:20:31;;;;;;;69.60;35.40;;;;;;;-2.44;82.38;102479.79;130639;1288;25632;-83
2023/02/06 08:23:34;;;;;;;91.80;50.70;;;;;;;-2.36;82.30;102479.64;130550;1293;22564;-84
2023/02/06 08:26:35;;;;;;;127.10;70.90;;;;;;;-2.24;82.23;102481.86;130636;1295;25332;-84
2023/02/06 08:29:41;;;;;;;84.70;44.60;;;;;;;-2.11;82.13;102480.25;130879;1292;24272;-84
2023/02/06 08:32:42;;;;;;;87.90;47.60;;;;;;;-2.02;81.54;102478.19;130775;1292;22652;-82
2023/02/06 08:35:42;;;;;;;59.60;30.10;;;;;;;-1.91;81.58;102480.73;130769;1294;22556;-83
2023/02/06 08:38:43;;;;;;;56.60;28.80;;;;;;;-1.81;81.15;102476.41;131000;1292;22569;-83
2023/02/06 08:41:44;;;;;;;;;;;;;;;-1.67;81.33;102472.30;130749;1285;22659;-83
2023/02/06 08:44:45;;;;;;;52.60;25.50;;;;;;;-1.57;80.74;102468.27;130913;1295;25525;-84
2023/02/06 08:47:45;;;;;;;51.20;25.70;;;;;;;-1.46;80.36;102471.52;130869;1285;24293;-84
2023/02/06 08:50:46;;;;;;;53.00;24.30;;;;;;;-1.37;79.73;102472.38;130739;1288;22572;-82
2023/02/06 08:53:47;;;;;;;51.80;25.00;;;;;;;-1.31;79.38;102468.77;130762;1294;22662;-83
2023/02/06 08:56:49;;;;;;;53.20;25.90;;;;;;;-1.25;79.29;102470.37;130784;1292;22634;-85
2023/02/06 08:59:50;;;;;;;48.80;24.40;;;;;;;-1.25;78.96;102464.99;130520;1292;22553;-83
2023/02/06 09:02:52;;;;;;;50.80;24.80;;;;;;;-1.36;78.84;102457.77;130603;1292;22567;-84
2023/02/06 09:05:59;;;;;;;48.10;23.90;;;;;;;-1.34;78.62;102462.41;131107;1292;22586;-85
2023/02/06 09:09:00;;;;;;;49.40;24.90;;;;;;;-1.19;79.07;102456.87;131025;1292;24394;-83
2023/02/06 09:12:02;;;;;;;45.40;22.50;;;;;;;-1.02;78.65;102461.88;130791;1295;25523;-82
2023/02/06 09:15:04;;;;;;;41.70;21.00;;;;;;;-0.98;78.24;102465.42;130960;1295;22673;-83
2023/02/06 09:18:05;;;;;;;41.80;22.40;;;;;;;-0.85;78.19;102468.42;130716;1296;26697;-83
2023/02/06 09:21:17;;;;;;;41.20;21.60;;;;;;;-0.77;78.16;102468.42;130688;1288;22567;-85
2023/02/06 09:24:17;;;;;;;47.90;23.60;;;;;;;-0.59;78.32;102462.25;130303;1295;25112;-83
2023/02/06 09:27:18;;;;;;;42.00;22.20;;;;;;;-0.39;78.23;102460.69;130663;1291;24265;-84
2023/02/06 09:30:20;;;;;;;;;;;;;;;-0.26;77.74;102467.33;130613;1294;22615;-84
2023/02/06 09:33:21;;;;;;;45.70;22.20;;;;;;;-0.24;76.95;102468.48;130906;1295;23759;-85
2023/02/06 09:36:23;;;;;;;49.20;22.10;;;;;;;-0.25;76.89;102464.52;130369;1295;22577;-84
2023/02/06 09:39:25;;;;;;;43.80;21.40;;;;;;;-0.27;76.51;102464.05;130341;1294;22559;-84
2023/02/06 09:42:36;;;;;;;41.40;21.20;;;;;;;-0.29;76.44;102463.40;130257;1296;25460;-84
2023/02/06 09:45:38;;;;;;;44.00;21.90;;;;;;;-0.27;76.22;102468.03;130963;1291;26538;-85
2023/02/06 09:48:41;;;;;;;48.90;24.80;;;;;;;-0.27;76.02;102465.80;130672;1286;22664;-83
2023/02/06 09:52:04;;;;;;;48.30;25.20;;;;;;;-0.26;76.13;102464.37;130814;1292;22580;-84
2023/02/06 09:55:19;;;;;;;43.30;21.60;;;;;;;-0.29;75.68;102458.19;130764;1295;22703;-85
2023/02/06 09:58:46;;;;;;;40.50;20.80;;;;;;;-0.27;75.78;102458.66;130600;1291;22569;-84
2023/02/06 10:01:59;;;;;;;41.40;21.20;;;;;;;-0.14;75.62;102462.15;130651;1289;25444;-85
2023/02/06 10:05:38;;;;;;;45.50;21.60;;;;;;;0.13;75.24;102462.28;130831;1292;22637;-86
2023/02/06 10:08:47;;;;;;;44.90;22.40;;;;;;;0.44;75.41;102459.99;131034;1288;25292;-84
2023/02/06 10:11:59;;;;;;;40.40;20.50;;;;;;;0.69;74.72;102464.66;130549;1289;22564;-85
2023/02/06 10:15:14;;;;;;;40.70;20.60;;;;;;;0.58;73.57;102468.66;130679;1292;22682;-84
2023/02/06 10:18:43;;;;;;;45.30;22.20;;;;;;;0.47;73.69;102470.02;130661;1285;22649;-83
2023/02/06 10:22:25;;;;;;;46.80;20.20;;;;;;;0.38;73.14;102473.39;130974;1289;22559;-84
2023/02/06 10:25:31;;;;;;;34.20;18.40;;;;;;;0.29;72.94;102472.12;130717;1293;22558;-83
2023/02/06 10:28:34;;;;;;;32.40;16.90;;;;;;;0.27;73.09;102473.04;130355;1286;22907;-84
2023/02/06 10:32:00;;;;;;;34.20;16.60;;;;;;;0.25;72.38;102472.55;130562;1295;25280;-85
2023/02/06 10:35:22;;;;;;;32.80;16.00;;;;;;;0.14;71.60;102476.18;130488;1295;22693;-86
2023/02/06 10:39:04;;;;;;;28.10;15.20;;;;;;;0.23;72.18;102475.42;130295;1293;25500;-84
2023/02/06 10:42:17;;;;;;;27.50;14.00;;;;;;;0.06;71.17;102479.53;130527;1295;22668;-84
2023/02/06 10:45:40;;;;;;;25.40;13.70;;;;;;;-0.12;70.79;102478.10;131047;1292;22587;-84
2023/02/06 10:49:04;;;;;;;28.30;13.30;;;;;;;-0.32;70.71;102468.71;130937;1291;22651;-84
2023/02/06 10:52:21;;;;;;;23.50;12.40;;;;;;;-0.30;70.77;102467.25;130479;1285;25081;-84
2023/02/06 10:55:25;;;;;;;22.30;12.40;;;;;;;-0.17;70.69;102471.27;130470;1292;22559;-85
2023/02/06 10:58:33;;;;;;;20.40;11.10;;;;;;;-0.09;70.61;102466.89;130414;1293;24341;-85
2023/02/06 11:01:37;;;;;;;25.50;13.30;;;;;;;-0.19;69.40;102461.58;130396;1295;22563;-84
2023/02/06 11:04:44;;;;;;;26.20;13.00;;;;;;;-0.36;69.78;102456.13;130762;1295;25596;-84
2023/02/06 11:07:50;;;;;;;21.10;10.70;;;;;;;-0.35;69.40;102460.24;130314;1295;25338;-84
2023/02/06 11:10:51;;;;;;;23.50;11.60;;;;;;;-0.52;69.05;102451.46;130277;1286;25398;-85
2023/02/06 11:14:04;;;;;;;20.00;9.90;;;;;;;-0.53;69.40;102447.84;130290;1295;23902;-83
2023/02/06 11:17:04;;;;;;;16.00;8.90;;;;;;;-0.39;69.35;102447.67;130462;1295;25376;-82
2023/02/06 11:20:21;;;;;;;20.10;11.10;;;;;;;-0.20;69.26;102447.69;130442;1295;24238;-83
2023/02/06 11:23:28;;;;;;;26.40;11.90;;;;;;;-0.14;69.14;102443.02;130517;1292;22561;-84
2023/02/06 11:26:29;;;;;;;26.10;13.60;;;;;;;0.03;68.52;102439.76;130437;1292;24294;-82
2023/02/06 11:29:35;;;;;;;31.00;14.70;;;;;;;0.25;68.65;102440.88;130325;1293;24234;-83
2023/02/06 11:32:42;;;;;;;30.00;15.40;;;;;;;0.52;68.28;102444.63;130351;1292;24080;-82
2023/02/06 11:35:58;;;;;;;25.50;13.40;;;;;;;0.58;67.56;102441.84;130459;1295;24234;-83
2023/02/06 11:39:19;;;;;;;26.50;14.40;;;;;;;0.59;67.24;102441.81;130507;1292;22620;-83
2023/02/06 11:42:23;;;;;;;26.50;13.70;;;;;;;0.63;67.51;102442.73;130787;1293;25313;-83
2023/02/06 11:45:32;;;;;;;29.10;13.10;;;;;;;0.67;66.58;102441.05;130384;1293;22939;-83
2023/02/06 11:48:39;;;;;;;24.80;13.80;;;;;;;0.69;67.37;102443.08;130411;1292;22559;-84
2023/02/06 11:51:59;;;;;;;22.60;13.20;;;;;;;0.84;65.87;102436.17;130522;1295;22559;-83
2023/02/06 11:55:01;;;;;;;23.90;11.90;;;;;;;0.66;66.09;102442.63;130331;1295;22556;-84
2023/02/06 11:58:08;;;;;;;26.90;13.30;;;;;;;0.37;65.38;102444.36;130477;1293;25271;-83
2023/02/06 12:01:18;;;;;;;22.50;12.10;;;;;;;0.08;66.05;102446.94;130682;1292;25523;-84
2023/02/06 12:04:24;;;;;;;21.90;12.20;;;;;;;-0.07;66.12;102451.34;130335;1296;25335;-83
2023/02/06 12:07:36;;;;;;;20.50;11.90;;;;;;;-0.12;66.42;102453.91;130502;1292;22563;-84
2023/02/06 12:10:47;;;;;;;23.40;11.80;;;;;;;-0.25;66.16;102448.16;130835;1292;23414;-83
2023/02/06 12:13:53;;;;;;;31.70;13.20;;;;;;;-0.35;66.40;102443.91;130914;1294;22566;-83
2023/02/06 12:16:55;;;;;;;25.70;14.00;;;;;;;-0.43;66.50;102435.60;130832;1292;24357;-83
2023/02/06 12:20:04;;;;;;;25.60;14.00;;;;;;;-0.46;66.45;102434.10;130657;1292;25451;-84
2023/02/06 12:23:19;;;;;;;24.70;13.00;;;;;;;-0.54;66.60;102430.48;130977;1293;24107;-84
2023/02/06 12:26:23;;;;;;;27.40;13.50;;;;;;;-0.59;66.57;102419.81;130881;1292;25360;-84
2023/02/06 12:29:31;;;;;;;28.70;15.10;;;;;;;-0.54;67.42;102419.86;130867;1293;22604;-84
2023/02/06 12:32:43;;;;;;;29.10;13.20;;;;;;;-0.44;67.43;102417.89;130720;1292;25386;-83
2023/02/06 12:35:49;;;;;;;21.80;11.30;;;;;;;-0.43;67.27;102412.64;130988;1293;25316;-84
2023/02/06 12:39:03;;;;;;;19.60;10.90;;;;;;;-0.47;66.89;102404.57;131017;1293;22572;-84
2023/02/06 12:42:35;;;;;;;17.10;9.90;;;;;;;-0.39;66.82;102406.45;131098;1292;25508;-84
2023/02/06 12:46:04;;;;;;;18.60;9.70;;;;;;;-0.43;65.86;102406.19;130931;1293;25388;-83
2023/02/06 12:49:22;;;;;;;20.00;9.90;;;;;;;-0.60;66.16;102409.76;130870;1292;24237;-84
2023/02/06 12:52:45;;;;;;;19.10;9.80;;;;;;;-0.69;66.88;102409.47;130917;1295;22557;-83
2023/02/06 12:56:11;;;;;;;21.70;11.60;;;;;;;-0.59;67.32;102405.22;130847;1295;24238;-83
2023/02/06 12:59:37;;;;;;;24.40;12.70;;;;;;;-0.58;66.38;102402.77;130304;1294;22625;-84
2023/02/06 13:02:56;;;;;;;24.30;12.80;;;;;;;-0.56;67.10;102404.96;130772;1295;24413;-83
2023/02/06 13:06:19;;;;;;;27.80;12.60;;;;;;;-0.31;66.97;102407.45;130865;1293;24302;-83
2023/02/06 13:09:24;;;;;;;26.50;13.00;;;;;;;-0.41;66.07;102408.05;130784;1292;22570;-84
2023/02/06 13:12:28;;;;;;;27.60;14.50;;;;;;;-0.55;65.59;102411.02;130836;1294;22556;-84
2023/02/06 13:15:39;;;;;;;23.60;13.00;;;;;;;-0.62;66.33;102415.56;130938;1292;24232;-83
2023/02/06 13:18:39;;;;;;;27.60;13.50;;;;;;;-0.67;66.55;102421.95;130763;1294;22682;-84
2023/02/06 13:21:50;;;;;;;26.70;14.20;;;;;;;-0.66;66.18;102421.93;131014;1294;24091;-86
2023/02/06 13:24:51;;;;;;;26.60;13.60;;;;;;;-0.80;66.46;102423.48;130614;1295;24290;-81
2023/02/06 13:27:54;;;;;;;28.50;14.20;;;;;;;-0.82;66.60;102425.98;130873;1291;22609;-79
2023/02/06 13:31:06;;;;;;;25.40;13.60;;;;;;;-0.84;67.02;102424.11;131054;1294;22625;-80
2023/02/06 13:34:13;;;;;;;23.40;13.00;;;;;;;-0.88;66.75;102433.39;131183;1288;25453;-79
2023/02/06 13:37:48;;;;;;;24.70;13.30;;;;;;;-0.98;66.72;102438.49;130601;1291;22593;-83
2023/02/06 13:41:13;;;;;;;31.10;16.30;;;;;;;-1.03;66.99;102437.39;130229;1286;25319;-82
2023/02/06 13:44:20;;;;;;;38.60;19.10;;;;;;;-1.09;67.37;102432.15;130994;1288;24333;-82
2023/02/06 13:47:46;;;;;;;26.10;14.70;;;;;;;-1.11;67.37;102437.92;130499;1292;24118;-81
2023/02/06 13:50:58;;;;;;;28.70;15.40;;;;;;;-1.16;67.22;102440.12;130677;1289;23686;-82
2023/02/06 13:54:08;;;;;;;24.80;14.30;;;;;;;-1.23;67.63;102439.77;131120;1288;22598;-82
2023/02/06 13:57:45;;;;;;;20.60;11.20;;;;;;;-1.24;67.94;102437.02;130641;1292;22580;-82
2023/02/06 14:00:48;;;;;;;19.60;9.80;;;;;;;-1.26;67.51;102440.88;130453;1293;25556;-81